Time;durP1;ratioP1;P1;durP2;ratioP2;P2;SDS_P1;SDS_P2;PMS_P1;PMS_P2;Temp;Humidity;BMP_temperature;BMP_pressure;BME280_temperature;BME280_humidity;BME280_pressure;Samples;Min_cycle;Max_cycle;Signal;HPM_P1;HPM_P2
2022/09/03 00:00:20;;;;;;;3.03;1.33;;;17.40;61.90;;;;;;5063584;28;20592;-71
2022/09/03 00:03:12;;;;;;;3.13;1.40;;;17.40;60.10;;;;;;5065844;28;20482;-70
2022/09/03 00:06:11;;;;;;;2.57;1.00;;;17.40;61.90;;;;;;5065936;28;20442;-71
2022/09/03 00:09:03;;;;;;;3.70;1.40;;;17.40;61.30;;;;;;5066425;28;20457;-71
2022/09/03 00:11:53;;;;;;;2.17;1.23;;;17.50;62.60;;;;;;5063803;28;20475;-71
2022/09/03 00:14:42;;;;;;;3.13;1.53;;;17.70;63.10;;;;;;5064284;28;20450;-71
2022/09/03 00:17:34;;;;;;;8.40;1.40;;;17.60;63.00;;;;;;5068408;28;20495;-70
2022/09/03 00:20:26;;;;;;;4.20;1.47;;;17.70;64.10;;;;;;5064018;28;20425;-71
2022/09/03 00:23:19;;;;;;;2.47;1.40;;;17.80;63.90;;;;;;5066381;28;20478;-71
2022/09/03 00:26:17;;;;;;;2.40;1.50;;;17.70;63.10;;;;;;5067716;28;20904;-72
2022/09/03 00:29:09;;;;;;;2.77;1.30;;;17.70;63.10;;;;;;5067137;28;20466;-72
2022/09/03 00:31:59;;;;;;;3.33;1.20;;;17.80;63.10;;;;;;5063278;28;20470;-71
2022/09/03 00:34:49;;;;;;;1.87;1.00;;;17.90;64.00;;;;;;5064439;28;20446;-71
2022/09/03 00:37:35;;;;;;;1.90;1.23;;;17.90;62.10;;;;;;5066948;28;20495;-72
2022/09/03 00:40:36;;;;;;;2.73;1.20;;;17.80;62.60;;;;;;5062443;28;20450;-72
2022/09/03 00:43:33;;;;;;;4.93;1.23;;;17.80;63.10;;;;;;5063449;28;21762;-72
2022/09/03 00:46:26;;;;;;;3.93;1.10;;;17.80;63.10;;;;;;5066430;28;20458;-72
2022/09/03 00:49:33;;;;;;;5.50;1.40;;;17.80;65.10;;;;;;5063548;28;20423;-71
2022/09/03 00:52:26;;;;;;;6.40;1.40;;;17.80;61.00;;;;;;5064978;28;20863;-72
2022/09/03 00:55:24;;;;;;;2.87;1.10;;;17.80;63.60;;;;;;5063383;28;20435;-72
2022/09/03 00:58:29;;;;;;;2.60;1.30;;;17.80;63.90;;;;;;5066963;28;20462;-72
2022/09/03 01:01:20;;;;;;;2.90;1.20;;;17.90;63.20;;;;;;5063252;28;20971;-72
2022/09/03 01:04:22;;;;;;;3.50;1.20;;;17.90;63.20;;;;;;5075103;28;20442;-72
2022/09/03 01:07:17;;;;;;;2.60;1.10;;;18.00;58.50;;;;;;5066446;28;20446;-72
2022/09/03 01:10:12;;;;;;;3.47;1.13;;;18.10;62.70;;;;;;5063747;28;20594;-72
2022/09/03 01:13:07;;;;;;;2.57;1.20;;;18.20;57.70;;;;;;5069008;28;21378;-72
2022/09/03 01:16:05;;;;;;;2.37;0.97;;;18.20;61.30;;;;;;5067444;28;20471;-72
2022/09/03 01:19:02;;;;;;;2.33;1.10;;;18.30;63.10;;;;;;5061758;28;20397;-72
2022/09/03 01:22:10;;;;;;;2.50;1.07;;;18.20;63.30;;;;;;5070409;28;21250;-72
2022/09/03 01:25:16;;;;;;;11.40;1.50;;;18.20;62.30;;;;;;5069541;28;20458;-72
2022/09/03 01:28:13;;;;;;;2.47;1.17;;;18.20;63.00;;;;;;5068719;28;20450;-72
2022/09/03 01:31:11;;;;;;;4.03;1.40;;;18.30;61.00;;;;;;5069277;28;21090;-72
2022/09/03 01:34:10;;;;;;;2.00;1.07;;;18.30;62.50;;;;;;5070098;28;20501;-72
2022/09/03 01:37:06;;;;;;;7.80;1.37;;;18.30;61.50;;;;;;5070914;28;20874;-72
2022/09/03 01:40:02;;;;;;;10.43;1.10;;;18.20;63.10;;;;;;5065159;28;20829;-72
2022/09/03 01:43:00;;;;;;;2.03;1.30;;;18.10;63.40;;;;;;5077505;28;20453;-72
2022/09/03 01:45:58;;;;;;;3.13;1.37;;;18.10;62.10;;;;;;5067117;28;20498;-72
2022/09/03 01:48:51;;;;;;;2.80;1.40;;;18.10;59.40;;;;;;5067519;28;20459;-72
2022/09/03 01:51:37;;;;;;;2.40;1.10;;;18.10;58.50;;;;;;5069884;28;20980;-72
2022/09/03 01:54:45;;;;;;;2.13;1.10;;;18.20;60.40;;;;;;5067538;28;20982;-72
2022/09/03 01:57:40;;;;;;;3.93;1.40;;;18.20;60.60;;;;;;5072068;28;21591;-72
2022/09/03 02:00:30;;;;;;;3.97;1.37;;;18.30;59.60;;;;;;5064378;28;20463;-72
2022/09/03 02:03:18;;;;;;;3.10;1.17;;;18.40;58.70;;;;;;5070426;28;20987;-72
2022/09/03 02:06:06;;;;;;;2.30;1.13;;;18.40;58.40;;;;;;5071251;28;20577;-72
2022/09/03 02:08:52;;;;;;;2.80;1.20;;;18.50;58.10;;;;;;5068831;28;20453;-72
2022/09/03 02:11:38;;;;;;;2.20;1.20;;;18.60;51.80;;;;;;5069091;28;20604;-72
2022/09/03 02:14:26;;;;;;;8.10;1.20;;;18.60;51.80;;;;;;5067621;28;20430;-72
2022/09/03 02:17:12;;;;;;;2.43;1.20;;;18.80;52.10;;;;;;5071234;28;20470;-71
2022/09/03 02:20:03;;;;;;;2.40;1.30;;;18.80;52.00;;;;;;5064554;28;20454;-72
2022/09/03 02:22:50;;;;;;;3.50;1.50;;;18.80;54.30;;;;;;5067711;28;20452;-72
2022/09/03 02:25:38;;;;;;;2.30;1.20;;;18.90;52.80;;;;;;5072355;28;20569;-71
2022/09/03 02:28:25;;;;;;;2.77;1.30;;;18.90;55.30;;;;;;5064751;28;20418;-71
2022/09/03 02:31:11;;;;;;;2.67;1.13;;;18.90;51.40;;;;;;5065058;28;20453;-72
2022/09/03 02:33:58;;;;;;;1.90;1.30;;;18.90;56.80;;;;;;5075306;28;20803;-72
2022/09/03 02:36:47;;;;;;;3.37;1.30;;;18.80;57.00;;;;;;5071155;28;20828;-72
2022/09/03 02:39:33;;;;;;;4.40;1.40;;;18.90;56.30;;;;;;5068723;28;20475;-72
2022/09/03 02:42:19;;;;;;;2.83;1.60;;;18.80;52.90;;;;;;5066882;28;20608;-71
2022/09/03 02:45:16;;;;;;;1.80;1.07;;;18.70;54.10;;;;;;5062460;28;20450;-72
2022/09/03 02:48:02;;;;;;;2.33;1.17;;;18.70;56.00;;;;;;5066170;28;20439;-72
2022/09/03 02:50:48;;;;;;;2.67;1.37;;;18.60;55.80;;;;;;5068938;28;20441;-72
2022/09/03 02:53:35;;;;;;;2.53;1.23;;;18.70;55.20;;;;;;5066727;28;20430;-72
2022/09/03 02:56:26;;;;;;;7.20;1.47;;;18.60;54.20;;;;;;5064853;28;20476;-72
2022/09/03 02:59:12;;;;;;;2.87;1.57;;;18.70;55.90;;;;;;5067782;28;20816;-71
2022/09/03 03:01:58;;;;;;;6.97;1.60;;;18.60;58.50;;;;;;5071643;28;20464;-72
2022/09/03 03:04:43;;;;;;;4.03;1.40;;;18.70;55.40;;;;;;5067330;28;20457;-72
2022/09/03 03:07:32;;;;;;;2.50;1.30;;;18.70;55.00;;;;;;5067324;28;20442;-72
2022/09/03 03:10:19;;;;;;;4.43;1.30;;;18.80;56.20;;;;;;5059563;28;20451;-72
2022/09/03 03:13:05;;;;;;;2.87;1.60;;;18.80;54.80;;;;;;5071946;28;20564;-72
2022/09/03 03:15:50;;;;;;;3.83;1.70;;;18.80;54.40;;;;;;5065247;28;20541;-72
2022/09/03 03:18:36;;;;;;;4.70;1.37;;;18.80;53.80;;;;;;5061640;28;20473;-72
2022/09/03 03:21:21;;;;;;;2.93;1.17;;;18.90;54.40;;;;;;5068153;28;20421;-71
2022/09/03 03:24:08;;;;;;;3.50;1.40;;;18.90;48.60;;;;;;5069884;28;20441;-71
2022/09/03 03:26:58;;;;;;;4.60;1.27;;;18.90;49.60;;;;;;5074652;28;20450;-72
2022/09/03 03:29:43;;;;;;;4.10;1.33;;;18.90;50.40;;;;;;5069912;28;20809;-72
2022/09/03 03:32:29;;;;;;;1.97;1.17;;;19.00;52.30;;;;;;5066717;28;20474;-72
2022/09/03 03:35:15;;;;;;;2.77;1.43;;;18.90;53.80;;;;;;5068776;28;20438;-72
2022/09/03 03:38:01;;;;;;;4.87;1.10;;;18.90;52.10;;;;;;5065954;28;20470;-71
2022/09/03 03:40:46;;;;;;;2.63;1.10;;;18.80;53.40;;;;;;5066299;28;20432;-72
2022/09/03 03:43:33;;;;;;;5.40;1.23;;;18.70;56.20;;;;;;5064702;28;20832;-72
2022/09/03 03:46:19;;;;;;;3.33;1.17;;;18.70;55.60;;;;;;5064740;28;20907;-71
2022/09/03 03:49:06;;;;;;;3.00;1.30;;;18.60;53.10;;;;;;5064621;28;20804;-72
2022/09/03 03:51:51;;;;;;;3.33;1.30;;;18.70;54.70;;;;;;5065904;28;20810;-71
2022/09/03 03:54:37;;;;;;;2.60;1.30;;;18.50;56.70;;;;;;5066891;28;20802;-72
2022/09/03 03:57:23;;;;;;;2.00;1.23;;;18.50;56.90;;;;;;5056797;28;20592;-72
2022/09/03 04:00:11;;;;;;;4.63;1.13;;;18.40;58.30;;;;;;5062442;28;20419;-72
2022/09/03 04:02:59;;;;;;;3.10;1.30;;;18.30;60.30;;;;;;5062786;28;20958;-72
2022/09/03 04:05:54;;;;;;;1.87;1.17;;;18.30;62.50;;;;;;5064163;28;20439;-71
2022/09/03 04:08:42;;;;;;;3.30;1.57;;;18.40;60.80;;;;;;5066432;28;20470;-72
2022/09/03 04:11:28;;;;;;;5.40;1.10;;;18.30;61.80;;;;;;5063327;28;20473;-72
2022/09/03 04:14:13;;;;;;;6.20;1.27;;;18.40;62.20;;;;;;5064023;28;20903;-71
2022/09/03 04:17:01;;;;;;;2.93;1.40;;;18.30;62.80;;;;;;5069125;28;20545;-72
2022/09/03 04:19:47;;;;;;;3.43;1.30;;;18.30;64.90;;;;;;5066310;28;20443;-71
2022/09/03 04:22:33;;;;;;;2.63;1.20;;;18.20;64.90;;;;;;5070348;28;20482;-71
2022/09/03 04:25:18;;;;;;;2.27;1.27;;;18.30;64.70;;;;;;5071561;28;20553;-72
2022/09/03 04:28:04;;;;;;;4.10;1.63;;;18.30;68.00;;;;;;5063894;28;20882;-71
2022/09/03 04:30:50;;;;;;;2.47;1.20;;;18.30;68.60;;;;;;5073237;28;20522;-72
2022/09/03 04:33:38;;;;;;;5.20;1.53;;;18.20;63.80;;;;;;5066578;28;20447;-72
2022/09/03 04:36:25;;;;;;;3.50;1.50;;;18.20;66.70;;;;;;5074725;28;20601;-71
2022/09/03 04:39:10;;;;;;;3.97;1.13;;;18.20;67.00;;;;;;5063026;28;20578;-71
2022/09/03 04:41:56;;;;;;;5.23;1.37;;;18.10;64.70;;;;;;5067510;28;20474;-71
2022/09/03 04:44:42;;;;;;;6.63;1.53;;;18.10;64.20;;;;;;5068415;28;20597;-72
2022/09/03 04:47:28;;;;;;;2.60;1.43;;;18.10;65.40;;;;;;5061724;28;20590;-71
2022/09/03 04:50:15;;;;;;;2.20;1.20;;;18.10;63.00;;;;;;5065144;28;20434;-72
2022/09/03 04:53:01;;;;;;;2.63;1.60;;;18.20;62.10;;;;;;5072546;28;21009;-72
2022/09/03 04:55:47;;;;;;;2.20;1.10;;;18.30;61.80;;;;;;5072944;28;21025;-72
2022/09/03 04:58:33;;;;;;;2.23;1.20;;;18.30;64.50;;;;;;5066861;28;21099;-72
2022/09/03 05:01:22;;;;;;;2.50;1.63;;;18.40;60.60;;;;;;5070231;28;20439;-71
2022/09/03 05:04:08;;;;;;;2.93;1.27;;;18.50;59.60;;;;;;5069732;28;20447;-72
2022/09/03 05:06:55;;;;;;;2.70;1.50;;;18.40;60.70;;;;;;5067293;28;20560;-72
2022/09/03 05:09:40;;;;;;;4.60;1.20;;;18.50;63.70;;;;;;5071242;28;20450;-72
2022/09/03 05:12:26;;;;;;;2.17;1.13;;;18.50;58.40;;;;;;5069069;28;20552;-72
2022/09/03 05:15:12;;;;;;;4.10;1.50;;;18.50;59.40;;;;;;5070182;28;20438;-72
2022/09/03 05:17:58;;;;;;;5.90;1.00;;;18.60;60.70;;;;;;5068719;28;20552;-72
2022/09/03 05:20:44;;;;;;;1.97;1.43;;;18.50;59.90;;;;;;5064983;28;20533;-72
2022/09/03 05:23:32;;;;;;;5.73;1.43;;;18.50;59.60;;;;;;5071745;28;20450;-72
2022/09/03 05:26:20;;;;;;;2.90;1.57;;;18.50;59.30;;;;;;5070487;28;20457;-72
2022/09/03 05:29:07;;;;;;;2.50;1.53;;;18.60;59.20;;;;;;5070227;28;20417;-72
2022/09/03 05:31:53;;;;;;;2.50;1.60;;;18.60;60.70;;;;;;5069686;28;20531;-72
2022/09/03 05:34:39;;;;;;;4.13;1.50;;;18.70;63.90;;;;;;5068931;28;20473;-72
2022/09/03 05:37:26;;;;;;;5.97;1.90;;;18.70;66.60;;;;;;5064509;28;20470;-72
2022/09/03 05:40:13;;;;;;;9.33;1.90;;;18.70;63.90;;;;;;5068972;28;20442;-72
2022/09/03 05:42:58;;;;;;;4.97;1.80;;;18.70;66.90;;;;;;5069658;28;20581;-72
2022/09/03 05:45:44;;;;;;;7.20;1.80;;;18.60;74.60;;;;;;5070326;28;20445;-72
2022/09/03 05:48:30;;;;;;;3.13;1.80;;;18.50;89.70;;;;;;5064114;28;20810;-72
2022/09/03 05:51:17;;;;;;;2.40;1.20;;;18.30;92.60;;;;;;5070280;28;20503;-72
2022/09/03 05:54:04;;;;;;;4.90;1.77;;;18.20;92.20;;;;;;5077867;28;20459;-73
2022/09/03 05:56:51;;;;;;;2.23;1.60;;;18.00;96.40;;;;;;5060254;28;20973;-72
2022/09/03 05:59:36;;;;;;;3.30;1.93;;;18.00;99.80;;;;;;5070447;28;20431;-72
2022/09/03 06:02:22;;;;;;;3.20;2.00;;;17.90;99.90;;;;;;5068576;28;20469;-72
2022/09/03 06:05:08;;;;;;;3.27;2.03;;;17.60;99.90;;;;;;5070932;28;20446;-71
2022/09/03 06:07:54;;;;;;;5.10;1.87;;;17.60;99.90;;;;;;5069961;28;20455;-71
2022/09/03 06:10:39;;;;;;;2.47;1.50;;;17.40;99.90;;;;;;5070573;28;20459;-72
2022/09/03 06:13:28;;;;;;;5.90;2.00;;;17.40;99.90;;;;;;5071091;28;20478;-72
2022/09/03 06:16:14;;;;;;;4.67;2.27;;;17.20;99.90;;;;;;5066875;28;20679;-72
2022/09/03 06:19:00;;;;;;;3.53;2.47;;;17.20;99.90;;;;;;5068985;28;21097;-72
2022/09/03 06:21:47;;;;;;;5.80;1.90;;;17.10;99.90;;;;;;5070470;28;20482;-72
2022/09/03 06:24:32;;;;;;;10.03;5.57;;;17.10;99.90;;;;;;5084801;22;20501;-71
2022/09/03 06:27:20;;;;;;;3.10;1.53;;;17.00;99.90;;;;;;5058770;28;20593;-71
2022/09/03 06:30:08;;;;;;;2.80;1.83;;;17.10;99.90;;;;;;5070843;28;21979;-71
2022/09/03 06:32:53;;;;;;;3.80;1.70;;;17.20;99.90;;;;;;5070131;28;20977;-71
2022/09/03 06:35:40;;;;;;;10.23;2.10;;;17.30;99.90;;;;;;5072358;28;20477;-71
2022/09/03 06:38:27;;;;;;;3.77;2.10;;;17.50;99.90;;;;;;5069804;28;20567;-71
2022/09/03 06:41:17;;;;;;;4.43;2.20;;;17.50;99.90;;;;;;5068696;28;21008;-71
2022/09/03 06:44:05;;;;;;;5.03;1.83;;;17.50;99.90;;;;;;5069882;28;20544;-71
2022/09/03 06:46:52;;;;;;;2.10;1.60;;;17.70;99.90;;;;;;5065178;28;20935;-71
2022/09/03 06:49:38;;;;;;;3.53;1.93;;;17.70;99.90;;;;;;5065887;28;20447;-71
2022/09/03 06:52:24;;;;;;;2.43;1.67;;;17.80;99.90;;;;;;5065828;28;20522;-71
2022/09/03 06:55:10;;;;;;;4.80;2.13;;;18.00;99.90;;;;;;5069378;28;20432;-71
2022/09/03 06:57:56;;;;;;;2.43;1.90;;;18.10;99.90;;;;;;5068254;28;20463;-71
2022/09/03 07:00:43;;;;;;;2.30;1.60;;;18.20;99.90;;;;;;5064350;28;20437;-71
2022/09/03 07:03:30;;;;;;;4.63;2.20;;;18.20;99.90;;;;;;5065175;28;20429;-71
2022/09/03 07:06:18;;;;;;;2.73;1.83;;;18.20;99.90;;;;;;5063239;28;20793;-71
2022/09/03 07:09:04;;;;;;;5.53;3.33;;;18.20;99.90;;;;;;5067584;28;20867;-71
2022/09/03 07:11:50;;;;;;;3.90;1.83;;;18.20;99.90;;;;;;5065115;28;20438;-71
2022/09/03 07:14:35;;;;;;;3.70;2.00;;;18.30;99.90;;;;;;5062376;28;20455;-71
2022/09/03 07:17:21;;;;;;;5.30;1.83;;;18.30;99.90;;;;;;5067753;28;20531;-71
2022/09/03 07:20:09;;;;;;;8.57;2.40;;;18.30;99.90;;;;;;5063271;28;20815;-71
2022/09/03 07:22:56;;;;;;;4.60;2.07;;;18.30;99.90;;;;;;5067994;28;20560;-71
2022/09/03 07:25:42;;;;;;;4.20;2.80;;;18.20;99.90;;;;;;5077850;28;20850;-71
2022/09/03 07:28:29;;;;;;;4.60;2.77;;;18.30;99.90;;;;;;5069356;28;20493;-71
2022/09/03 07:31:18;;;;;;;3.63;2.37;;;18.20;99.90;;;;;;5066463;28;20437;-71
2022/09/03 07:34:05;;;;;;;3.50;2.07;;;18.10;99.90;;;;;;5067635;28;20474;-71
2022/09/03 07:36:53;;;;;;;3.10;1.90;;;17.80;99.90;;;;;;5068037;28;20446;-71
2022/09/03 07:39:40;;;;;;;3.07;2.07;;;17.70;99.90;;;;;;5065967;28;20504;-71
2022/09/03 07:42:26;;;;;;;2.57;1.70;;;17.70;99.90;;;;;;5068611;28;20442;-71
2022/09/03 07:45:12;;;;;;;3.10;1.90;;;17.30;99.90;;;;;;5067550;28;20466;-71
2022/09/03 07:47:57;;;;;;;2.50;2.00;;;17.40;99.90;;;;;;5070297;28;20485;-71
2022/09/03 07:50:43;;;;;;;3.53;2.40;;;17.50;99.90;;;;;;5058671;28;20513;-71
2022/09/03 07:53:30;;;;;;;2.90;1.90;;;17.60;99.90;;;;;;5068283;28;21009;-71
2022/09/03 07:56:16;;;;;;;3.80;2.63;;;17.70;99.90;;;;;;5066649;28;20447;-71
2022/09/03 07:59:02;;;;;;;3.10;2.37;;;17.70;99.90;;;;;;5064531;28;20479;-71
2022/09/03 08:01:49;;;;;;;5.13;2.40;;;17.70;99.90;;;;;;5064247;28;20514;-71
2022/09/03 08:04:35;;;;;;;4.37;2.30;;;17.90;99.90;;;;;;5067603;28;20449;-71
2022/09/03 08:07:21;;;;;;;4.07;2.43;;;17.80;99.90;;;;;;5066352;28;20967;-71
2022/09/03 08:10:08;;;;;;;7.47;2.37;;;17.80;99.90;;;;;;5064236;28;20815;-71
2022/09/03 08:12:54;;;;;;;3.90;2.57;;;17.80;99.90;;;;;;5065896;28;20832;-71
2022/09/03 08:15:41;;;;;;;3.73;2.47;;;17.80;99.90;;;;;;5061488;28;20446;-71
2022/09/03 08:18:36;;;;;;;5.10;2.93;;;17.90;99.90;;;;;;5065831;28;20515;-71
2022/09/03 08:21:23;;;;;;;10.43;3.30;;;18.10;99.90;;;;;;5064187;28;20562;-71
2022/09/03 08:24:10;;;;;;;3.60;2.90;;;18.20;99.90;;;;;;5069255;28;20994;-71
2022/09/03 08:26:57;;;;;;;2.50;2.30;;;18.20;99.90;;;;;;5074624;28;20565;-71
2022/09/03 08:29:45;;;;;;;3.67;2.87;;;18.20;99.90;;;;;;5070492;28;20505;-71
2022/09/03 08:32:31;;;;;;;4.00;2.73;;;18.30;99.90;;;;;;5071766;28;20469;-71
2022/09/03 08:35:16;;;;;;;4.80;2.90;;;18.20;99.90;;;;;;5072223;28;20492;-71
2022/09/03 08:38:05;;;;;;;4.93;2.63;;;18.20;99.90;;;;;;5073400;28;20453;-71
2022/09/03 08:40:51;;;;;;;5.00;2.80;;;18.10;99.90;;;;;;5066143;28;20601;-71
2022/09/03 08:43:57;;;;;;;3.70;3.00;;;18.10;99.90;;;;;;5070670;28;20945;-71
2022/09/03 08:46:51;;;;;;;4.00;3.20;;;18.00;99.90;;;;;;5071294;28;20924;-71
2022/09/03 08:49:44;;;;;;;4.73;3.30;;;18.10;99.90;;;;;;5066186;28;20524;-71
2022/09/03 08:52:33;;;;;;;4.10;3.13;;;18.10;99.90;;;;;;5069541;28;20449;-71
2022/09/03 08:55:25;;;;;;;6.83;3.40;;;18.20;99.90;;;;;;5069611;28;21029;-71
2022/09/03 08:58:14;;;;;;;3.83;3.03;;;18.10;99.90;;;;;;5073167;28;20520;-71
2022/09/03 09:01:11;;;;;;;5.00;3.63;;;18.10;99.90;;;;;;5067890;28;20447;-71
2022/09/03 09:04:08;;;;;;;5.33;3.30;;;18.20;99.90;;;;;;5070620;28;20995;-71
2022/09/03 09:07:04;;;;;;;5.50;3.40;;;18.20;99.90;;;;;;5068450;28;20821;-71
2022/09/03 09:09:58;;;;;;;5.87;3.10;;;18.00;99.90;;;;;;5062873;28;20443;-71
2022/09/03 09:13:04;;;;;;;5.03;3.80;;;18.00;99.90;;;;;;5067365;28;20449;-71
2022/09/03 09:15:58;;;;;;;4.30;3.50;;;17.90;99.90;;;;;;5073032;28;21013;-71
2022/09/03 09:19:01;;;;;;;4.03;3.20;;;17.80;99.90;;;;;;5067746;28;20465;-71
2022/09/03 09:21:53;;;;;;;8.73;3.70;;;17.80;99.90;;;;;;5067356;28;20450;-71
2022/09/03 09:24:42;;;;;;;4.53;3.60;;;17.90;99.90;;;;;;5073185;28;20473;-71
2022/09/03 09:27:29;;;;;;;5.33;3.63;;;17.90;99.90;;;;;;5069636;28;20439;-71
2022/09/03 09:30:16;;;;;;;6.00;3.43;;;18.00;99.90;;;;;;5070381;28;20413;-71
2022/09/03 09:33:02;;;;;;;3.57;2.93;;;18.20;99.90;;;;;;5072664;28;20971;-72
2022/09/03 09:35:49;;;;;;;7.60;4.20;;;18.30;99.90;;;;;;5069638;28;20446;-70
2022/09/03 09:38:37;;;;;;;3.83;3.30;;;18.40;99.90;;;;;;5069136;28;20820;-71
2022/09/03 09:41:23;;;;;;;9.80;3.47;;;18.50;99.90;;;;;;5074808;28;20462;-70
2022/09/03 09:44:19;;;;;;;4.23;3.47;;;18.50;99.90;;;;;;5072987;28;20443;-70
2022/09/03 09:47:10;;;;;;;4.63;3.07;;;18.50;99.90;;;;;;5064383;28;21022;-71
2022/09/03 09:49:57;;;;;;;4.07;3.27;;;18.40;99.90;;;;;;5070751;28;20496;-70
2022/09/03 09:52:44;;;;;;;5.80;3.77;;;18.50;99.90;;;;;;5070547;28;20466;-70
2022/09/03 09:55:31;;;;;;;5.77;3.90;;;18.50;99.90;;;;;;5070117;28;20963;-70
2022/09/03 09:58:21;;;;;;;3.93;3.53;;;18.50;99.90;;;;;;5067255;28;20451;-71
2022/09/03 10:01:17;;;;;;;4.70;3.97;;;18.60;99.90;;;;;;5071026;28;20445;-71
2022/09/03 10:04:10;;;;;;;5.40;3.50;;;18.70;99.90;;;;;;5067615;28;20473;-70
2022/09/03 10:06:57;;;;;;;4.60;3.50;;;18.80;99.90;;;;;;5069489;28;20451;-71
2022/09/03 10:09:44;;;;;;;6.03;3.70;;;19.20;99.90;;;;;;5063692;28;20589;-70
2022/09/03 10:12:39;;;;;;;6.63;4.67;;;19.40;99.90;;;;;;5069912;28;20498;-70
2022/09/03 10:15:31;;;;;;;4.90;3.43;;;19.60;99.90;;;;;;5072055;28;20450;-70
2022/09/03 10:18:27;;;;;;;9.17;4.43;;;19.80;99.90;;;;;;5066355;28;20443;-70
2022/09/03 10:21:20;;;;;;;6.37;5.30;;;20.00;99.90;;;;;;5071460;28;20446;-70
2022/09/03 10:24:23;;;;;;;5.63;3.93;;;20.00;99.90;;;;;;5062131;28;20490;-70
2022/09/03 10:27:13;;;;;;;5.83;5.20;;;20.10;99.90;;;;;;5072509;28;20462;-70
2022/09/03 10:29:59;;;;;;;6.30;5.10;;;20.30;99.90;;;;;;5062732;28;20440;-70
2022/09/03 10:32:52;;;;;;;4.77;4.30;;;20.50;99.90;;;;;;5073182;28;20467;-70
2022/09/03 10:35:44;;;;;;;4.50;3.87;;;20.50;99.90;;;;;;5069370;28;20973;-70
2022/09/03 10:38:33;;;;;;;3.80;3.47;;;20.60;99.90;;;;;;5065194;28;20446;-70
2022/09/03 10:41:32;;;;;;;5.40;3.60;;;20.90;99.90;;;;;;5072566;28;20455;-70
2022/09/03 10:44:34;;;;;;;5.13;3.50;;;21.20;99.90;;;;;;5075471;28;20465;-70
2022/09/03 10:47:43;;;;;;;6.33;3.33;;;21.50;99.90;;;;;;5070998;28;20810;-70
2022/09/03 10:50:34;;;;;;;4.20;3.30;;;21.80;99.90;;;;;;5066030;28;20581;-70
2022/09/03 10:53:38;;;;;;;5.13;3.23;;;22.00;99.90;;;;;;5066178;28;20479;-70
2022/09/03 10:56:32;;;;;;;5.67;3.50;;;22.10;99.90;;;;;;5065421;28;21008;-70
2022/09/03 10:59:33;;;;;;;8.10;4.50;;;22.30;99.90;;;;;;5063953;28;21152;-70
2022/09/03 11:02:37;;;;;;;7.13;3.83;;;22.40;99.90;;;;;;5067479;28;20455;-70
2022/09/03 11:05:28;;;;;;;3.67;3.33;;;22.50;99.90;;;;;;5066092;28;20459;-70
2022/09/03 11:08:21;;;;;;;4.63;3.50;;;22.20;99.90;;;;;;5066175;28;20466;-70
2022/09/03 11:11:14;;;;;;;4.47;2.90;;;22.30;99.90;;;;;;5071544;28;20435;-70
2022/09/03 11:14:04;;;;;;;3.90;3.30;;;22.40;99.90;;;;;;5065506;28;20837;-70
2022/09/03 11:16:56;;;;;;;3.30;2.53;;;22.50;99.90;;;;;;5070776;28;20439;-70
2022/09/03 11:19:50;;;;;;;4.00;2.97;;;22.60;99.90;;;;;;5066273;28;20466;-71
2022/09/03 11:22:36;;;;;;;4.90;3.37;;;22.80;99.90;;;;;;5066052;28;20454;-70
2022/09/03 11:25:24;;;;;;;3.70;2.50;;;22.90;99.90;;;;;;5065582;28;20593;-70
2022/09/03 11:28:22;;;;;;;4.10;3.10;;;23.10;99.90;;;;;;5061448;28;20467;-70
2022/09/03 11:31:22;;;;;;;3.17;2.47;;;23.10;99.90;;;;;;5069535;28;20450;-70
2022/09/03 11:34:15;;;;;;;2.70;2.00;;;23.00;99.90;;;;;;5070549;28;20471;-70
2022/09/03 11:37:18;;;;;;;3.97;2.20;;;22.80;99.90;;;;;;5070086;28;20947;-70
2022/09/03 11:40:10;;;;;;;2.80;2.00;;;22.70;99.90;;;;;;5068924;28;20551;-70
2022/09/03 11:43:06;;;;;;;3.90;2.83;;;22.70;99.90;;;;;;5074199;28;20461;-70
2022/09/03 11:46:03;;;;;;;2.97;1.83;;;22.80;97.90;;;;;;5065186;28;20777;-70
2022/09/03 11:48:51;;;;;;;2.40;1.60;;;22.90;97.30;;;;;;5068493;28;20469;-70
2022/09/03 11:51:40;;;;;;;2.77;1.80;;;22.90;94.80;;;;;;5068892;28;20442;-70
2022/09/03 11:54:26;;;;;;;3.80;2.00;;;22.90;95.00;;;;;;5063995;28;20442;-70
2022/09/03 11:57:14;;;;;;;2.60;1.70;;;22.90;94.90;;;;;;5060731;28;20437;-69
2022/09/03 12:00:11;;;;;;;2.23;1.50;;;22.80;93.70;;;;;;5063330;28;20958;-70
2022/09/03 12:03:01;;;;;;;2.47;1.60;;;22.70;94.20;;;;;;5064300;28;20451;-70
2022/09/03 12:05:56;;;;;;;2.40;1.80;;;22.60;94.30;;;;;;5063206;28;20431;-70
2022/09/03 12:09:06;;;;;;;2.67;1.90;;;22.70;97.80;;;;;;5065847;28;20505;-70
2022/09/03 12:12:02;;;;;;;3.33;2.03;;;23.00;96.30;;;;;;5063240;28;20470;-70
2022/09/03 12:14:57;;;;;;;2.63;1.50;;;23.40;93.60;;;;;;5065532;28;20430;-70
2022/09/03 12:18:17;;;;;;;2.10;1.20;;;23.80;86.40;;;;;;5064472;28;20532;-70
2022/09/03 12:21:03;;;;;;;2.87;1.40;;;24.10;72.60;;;;;;5065795;28;20466;-70
2022/09/03 12:23:53;;;;;;;2.03;1.20;;;24.20;73.50;;;;;;5086448;22;20960;-71
2022/09/03 12:26:40;;;;;;;2.23;1.43;;;24.10;73.90;;;;;;5082818;28;20434;-71
2022/09/03 12:29:28;;;;;;;2.03;1.37;;;23.90;72.40;;;;;;5085564;28;20780;-71
2022/09/03 12:32:14;;;;;;;2.40;1.60;;;23.70;74.80;;;;;;5080724;28;20826;-71
2022/09/03 12:35:12;;;;;;;3.17;1.50;;;23.50;74.70;;;;;;5087877;28;20461;-71
2022/09/03 12:37:58;;;;;;;2.77;1.20;;;23.60;75.60;;;;;;5079689;28;20445;-71
2022/09/03 12:40:45;;;;;;;2.37;1.43;;;23.60;77.50;;;;;;5086847;28;20962;-71
2022/09/03 12:43:31;;;;;;;1.83;1.13;;;23.70;75.10;;;;;;5075927;28;20454;-71
2022/09/03 12:46:16;;;;;;;2.37;1.30;;;23.90;74.00;;;;;;5075069;28;20430;-71
2022/09/03 12:49:06;;;;;;;2.50;1.13;;;24.30;66.00;;;;;;5083763;28;20572;-71
2022/09/03 12:51:52;;;;;;;2.37;1.20;;;24.40;64.00;;;;;;5084356;28;20430;-71
2022/09/03 12:54:46;;;;;;;2.17;1.23;;;24.30;61.30;;;;;;5086710;28;20491;-71
2022/09/03 12:57:38;;;;;;;3.00;1.30;;;23.90;62.90;;;;;;5079856;28;20499;-71
2022/09/03 13:00:24;;;;;;;5.73;1.10;;;23.90;64.90;;;;;;5088914;28;20519;-71
2022/09/03 13:03:15;;;;;;;2.47;1.50;;;23.80;63.10;;;;;;5075725;28;20449;-71
2022/09/03 13:06:06;;;;;;;2.60;1.00;;;24.00;64.60;;;;;;5086120;28;20515;-71
2022/09/03 13:08:55;;;;;;;1.80;0.97;;;24.10;61.90;;;;;;5080904;28;20843;-71
2022/09/03 13:11:43;;;;;;;1.90;0.90;;;24.30;60.90;;;;;;5087196;28;20616;-71
2022/09/03 13:14:30;;;;;;;1.77;0.80;;;24.10;57.70;;;;;;5078578;28;20812;-71
2022/09/03 13:17:35;;;;;;;1.70;0.83;;;24.10;56.70;;;;;;5083107;28;20953;-71
2022/09/03 13:20:35;;;;;;;3.17;1.20;;;24.10;61.00;;;;;;5084422;28;20474;-71
2022/09/03 13:23:49;;;;;;;2.60;1.50;;;23.70;60.30;;;;;;5080537;28;20536;-71
2022/09/03 13:26:44;;;;;;;2.57;1.30;;;23.60;64.10;;;;;;5085538;28;20480;-71
2022/09/03 13:29:58;;;;;;;2.33;1.20;;;23.50;65.50;;;;;;5087113;28;20439;-71
2022/09/03 13:32:53;;;;;;;2.10;1.20;;;23.50;67.80;;;;;;5086249;28;20426;-71
2022/09/03 13:35:45;;;;;;;3.07;1.40;;;23.40;69.00;;;;;;5083080;28;20429;-71
2022/09/03 13:38:35;;;;;;;2.20;1.20;;;23.30;68.10;;;;;;5084420;28;20426;-71
2022/09/03 13:41:35;;;;;;;2.07;1.20;;;23.30;67.60;;;;;;5079182;28;20470;-71
2022/09/03 13:44:30;;;;;;;2.63;1.30;;;23.30;69.90;;;;;;5080495;28;20445;-71
2022/09/03 13:47:28;;;;;;;2.63;1.30;;;23.30;67.10;;;;;;5083092;28;20437;-71
2022/09/03 13:50:25;;;;;;;3.70;1.30;;;23.40;67.70;;;;;;5083620;28;20426;-71
2022/09/03 13:53:21;;;;;;;2.13;1.13;;;23.50;67.10;;;;;;5076131;28;20467;-71
2022/09/03 13:56:19;;;;;;;2.10;1.30;;;23.40;65.50;;;;;;5083899;28;20493;-71
2022/09/03 13:59:10;;;;;;;3.57;1.10;;;23.60;66.20;;;;;;5087699;28;20431;-71
2022/09/03 14:02:07;;;;;;;3.57;2.07;;;24.20;64.20;;;;;;5084338;28;20794;-71
2022/09/03 14:05:06;;;;;;;3.27;1.87;;;24.90;63.10;;;;;;5088176;28;20547;-71
2022/09/03 14:08:06;;;;;;;2.03;1.27;;;25.20;56.70;;;;;;5080537;28;20427;-71
2022/09/03 14:10:58;;;;;;;2.53;1.50;;;25.20;49.70;;;;;;5082587;28;20840;-71
2022/09/03 14:13:57;;;;;;;3.43;1.73;;;25.00;51.80;;;;;;5087844;28;20446;-71
2022/09/03 14:16:49;;;;;;;2.20;1.40;;;24.90;52.10;;;;;;5080659;28;20450;-71
2022/09/03 14:19:43;;;;;;;2.37;1.40;;;25.00;56.10;;;;;;5079864;28;20433;-71
2022/09/03 14:22:44;;;;;;;2.40;1.43;;;25.30;53.80;;;;;;5076937;28;20438;-71
2022/09/03 14:25:31;;;;;;;2.53;1.60;;;25.30;51.90;;;;;;5074813;28;20456;-71
2022/09/03 14:28:30;;;;;;;4.03;1.43;;;25.70;51.90;;;;;;5090391;28;20425;-71
2022/09/03 14:31:26;;;;;;;3.03;1.87;;;25.60;49.60;;;;;;5079789;28;20414;-71
2022/09/03 14:34:22;;;;;;;2.50;1.70;;;25.50;51.60;;;;;;5091784;28;20496;-71
2022/09/03 14:37:21;;;;;;;3.67;1.90;;;25.40;51.90;;;;;;5079888;28;20492;-71
2022/09/03 14:40:17;;;;;;;4.00;2.20;;;25.10;57.10;;;;;;5086979;28;20493;-71
2022/09/03 14:43:27;;;;;;;3.60;2.30;;;25.00;58.60;;;;;;5075977;28;20434;-71
2022/09/03 14:46:25;;;;;;;2.87;1.93;;;25.20;58.80;;;;;;5084681;28;21032;-71